Flight Track Log - Related Links

Times and Time Zones

All times are in EDT time to prevent confusion due to time zone crossing. See the N525AL flight status page for this flight to view local times or setup timezone preferences in your user account.


Time Position Orientation Groundspeed Altitude Reporting Facility
EDT Latitude Longitude Course Direction KTS MPH feet Rate Location/Type
Thu 09:30:59 AM 36.0167 -86.5167 58° Northeast 150 173 1,000  Level Nashville TRACON
Thu 09:31:35 AM 36.0333 -86.4833 58° Northeast 197 227 2,600 2,632 Climbing Nashville TRACON
Thu 09:32:53 AM 36.0333 -86.3833 90° East 279 321 6,000 2,700 Climbing Nashville TRACON
Thu 09:33:35 AM 36.0000 -86.3167 122° Southeast 262 302 8,000 2,121 Climbing Nashville TRACON
Thu 09:34:32 AM 35.9739 -86.2558 118° Southeast 281 323 9,500 2,205 Climbing Memphis Center
Thu 09:35:32 AM 35.9336 -86.1681 120° Southeast 281 323 12,300 2,950 Climbing Memphis Center
Thu 09:36:32 AM 35.9056 -86.0822 112° Southeast 276 318 15,400 2,900 Climbing Memphis Center
Thu 09:37:32 AM 35.8758 -86.0044 115° Southeast 264 304 18,100 2,450 Climbing Memphis Center
Thu 09:38:32 AM 35.8458 -85.9242 115° Southeast 258 297 20,300 2,039 Climbing Memphis Center
Thu 09:40:55 AM 35.7694 -85.7253 115° Southeast 260 299 25,000 1,862 Climbing Atlanta Center
Thu 09:41:55 AM 35.7350 -85.6350 115° Southeast 266 306 26,600 1,550 Climbing Atlanta Center
Thu 09:42:55 AM 35.7008 -85.5397 114° Southeast 277 319 28,100 1,500 Climbing Atlanta Center
Thu 09:43:55 AM 35.6664 -85.4472 115° Southeast 287 330 29,600 1,400 Climbing Atlanta Center
Thu 09:44:55 AM 35.6300 -85.3519 115° Southeast 299 344 30,900 1,100 Climbing Atlanta Center
Thu 09:45:55 AM 35.5892 -85.2467 115° Southeast 317 365 31,800 1,160 Climbing Atlanta Center
Thu 09:46:54 AM 35.5528 -85.1467 114° Southeast 323 372 33,200 1,200 Climbing Atlanta Center
Thu 09:47:55 AM 35.5139 -85.0414 114° Southeast 323 372 34,200 893 Climbing Atlanta Center
Thu 09:48:55 AM 35.4731 -84.9364 116° Southeast 323 372 35,000 400 Climbing Atlanta Center
Thu 09:49:55 AM 35.4239 -84.8111 116° Southeast 349 402 35,000  Level Atlanta Center
Thu 09:50:55 AM 35.3806 -84.6908 114° Southeast 367 422 35,000  Level Atlanta Center
Thu 09:51:55 AM 35.3311 -84.5683 116° Southeast 389 448 35,000  Level Atlanta Center
Thu 09:52:55 AM 35.2836 -84.4408 115° Southeast 395 455 35,000  Level Atlanta Center
Thu 09:53:55 AM 35.2319 -84.3108 116° Southeast 407 468 35,000  Level Atlanta Center
Thu 09:54:55 AM 35.1819 -84.1811 115° Southeast 412 474 35,000  Level Atlanta Center
Thu 09:55:55 AM 35.1319 -84.0489 115° Southeast 417 480 35,000  Level Atlanta Center
Thu 09:56:55 AM 35.0778 -83.9194 117° Southeast 422 486 35,000 -750 Level Atlanta Center
Thu 09:57:55 AM 35.0253 -83.7850 115° Southeast 422 486 33,500 -1,750 Descending Atlanta Center
Thu 09:58:55 AM 34.9706 -83.6408 115° Southeast 435 501 31,500 -1,950 Descending Atlanta Center
Thu 09:59:55 AM 34.9181 -83.5042 115° Southeast 443 510 29,600 -3,250 Descending Atlanta Center
Thu 10:00:55 AM 34.8589 -83.3706 118° Southeast 443 510 25,000 -1,850 Descending Atlanta Center
Thu 10:01:55 AM 34.8100 -83.2342 114° Southeast 443 510 25,900  Climbing Atlanta Center
Thu 10:02:55 AM 34.7569 -83.1058 117° Southeast 436 502 25,000 -450 Descending Atlanta Center
Thu 10:03:55 AM 34.7058 -82.9825 117° Southeast 415 478 25,000 -450 Level Atlanta Center
Thu 10:04:55 AM 34.6589 -82.8619 115° Southeast 402 463 24,100 -500 Descending Atlanta Center
Thu 10:05:55 AM 34.6078 -82.7467 118° Southeast 402 463 24,000 -50 Descending Atlanta Center
Thu 10:06:55 AM 34.5606 -82.6289 116° Southeast 402 463 24,000 -50 Level Atlanta Center
Thu 10:07:55 AM 34.5089 -82.4961 115° Southeast 397 457 23,900 -1,000 Descending Atlanta Center
Thu 10:08:55 AM 34.4592 -82.3786 117° Southeast 397 457 22,000 -2,000 Descending Atlanta Center
Thu 10:09:55 AM 34.4136 -82.2586 115° Southeast 397 457 19,900 -2,100 Descending Atlanta Center
Thu 10:10:55 AM 34.3683 -82.1464 116° Southeast 391 450 17,800 -1,750 Descending Atlanta Center
Thu 10:11:55 AM 34.3250 -82.0442 117° Southeast 372 428 16,400 -1,629 Descending Atlanta Center
Thu 10:13:26 AM 34.2644 -81.8975 117° Southeast 349 402 13,700 -1,868 Descending Jacksonville Center
Thu 10:14:26 AM 34.2239 -81.8000 117° Southeast 334 384 11,700 -1,350 Descending Jacksonville Center
Thu 10:15:26 AM 34.1833 -81.7028 117° Southeast 329 379 11,000 -850 Descending Jacksonville Center
Thu 10:16:26 AM 34.1450 -81.6078 116° Southeast 324 373 10,000 -1,350 Descending Jacksonville Center
Thu 10:17:26 AM 34.1064 -81.5181 117° Southeast 313 360 8,300 -1,700 Descending Jacksonville Center
Thu 10:18:26 AM 34.0803 -81.4283 109° East 294 338 6,600 -1,550 Descending Jacksonville Center
Thu 10:19:26 AM 34.0794 -81.3431 91° East 279 321 5,200 -1,150 Descending Jacksonville Center
Thu 10:20:26 AM 34.0717 -81.2303 95° East 274 315 4,300 -1,150 Descending Jacksonville Center
Thu 10:21:26 AM 34.0664 -81.1478 94° East 269 310 2,900 -1,000 Descending Jacksonville Center
Thu 10:22:26 AM 34.0547 -81.0678 100° East 269 310 2,300 -600 Descending Jacksonville Center

Login

Don't have an account? Register now (free) for customized features, flight alerts, and more!